sensor_id;sensor_type;location;lat;lon;timestamp;pressure;altitude;pressure_sealevel;temperature;humidity
46710;BME280;32442;51.514;-0.178;2022-12-29T00:00:18;99228.00;;;15.95;56.86
46710;BME280;32442;51.514;-0.178;2022-12-29T00:02:45;99221.59;;;15.95;56.75
46710;BME280;32442;51.514;-0.178;2022-12-29T00:05:12;99231.13;;;15.94;56.66
46710;BME280;32442;51.514;-0.178;2022-12-29T00:07:44;99230.78;;;15.95;56.81
46710;BME280;32442;51.514;-0.178;2022-12-29T00:10:11;99232.75;;;15.95;56.83
46710;BME280;32442;51.514;-0.178;2022-12-29T00:12:38;99228.34;;;15.94;56.59
46710;BME280;32442;51.514;-0.178;2022-12-29T00:15:23;99224.72;;;15.93;56.94
46710;BME280;32442;51.514;-0.178;2022-12-29T00:18:05;99212.25;;;15.91;56.97
46710;BME280;32442;51.514;-0.178;2022-12-29T00:20:33;99205.53;;;15.92;56.87
46710;BME280;32442;51.514;-0.178;2022-12-29T00:23:18;99215.84;;;15.91;57.01
46710;BME280;32442;51.514;-0.178;2022-12-29T00:26:05;99204.22;;;15.89;56.69
46710;BME280;32442;51.514;-0.178;2022-12-29T00:28:53;99209.81;;;15.89;57.04
46710;BME280;32442;51.514;-0.178;2022-12-29T00:31:39;99217.31;;;15.89;56.78
46710;BME280;32442;51.514;-0.178;2022-12-29T00:34:24;99224.03;;;15.88;56.86
46710;BME280;32442;51.514;-0.178;2022-12-29T00:37:09;99215.16;;;15.86;56.60
46710;BME280;32442;51.514;-0.178;2022-12-29T00:39:36;99211.56;;;15.85;56.69
46710;BME280;32442;51.514;-0.178;2022-12-29T00:42:21;99222.69;;;15.85;56.53
46710;BME280;32442;51.514;-0.178;2022-12-29T00:45:06;99214.69;;;15.84;56.45
46710;BME280;32442;51.514;-0.178;2022-12-29T00:47:33;99207.16;;;15.84;56.71
46710;BME280;32442;51.514;-0.178;2022-12-29T00:50:00;99217.78;;;15.82;56.74
46710;BME280;32442;51.514;-0.178;2022-12-29T00:52:26;99220.56;;;15.82;56.65
46710;BME280;32442;51.514;-0.178;2022-12-29T00:54:53;99219.72;;;15.82;56.74
46710;BME280;32442;51.514;-0.178;2022-12-29T00:57:20;99213.84;;;15.83;56.47
46710;BME280;32442;51.514;-0.178;2022-12-29T00:59:46;99213.34;;;15.81;56.81
46710;BME280;32442;51.514;-0.178;2022-12-29T01:02:13;99218.06;;;15.81;56.43
46710;BME280;32442;51.514;-0.178;2022-12-29T01:04:40;99213.69;;;15.80;56.77
46710;BME280;32442;51.514;-0.178;2022-12-29T01:07:07;99217.28;;;15.80;56.44
46710;BME280;32442;51.514;-0.178;2022-12-29T01:09:33;99221.19;;;15.79;56.80
46710;BME280;32442;51.514;-0.178;2022-12-29T01:12:39;99217.91;;;15.77;56.62
46710;BME280;32442;51.514;-0.178;2022-12-29T01:15:11;99217.91;;;15.77;56.59
46710;BME280;32442;51.514;-0.178;2022-12-29T01:17:41;99205.13;;;15.76;56.42
46710;BME280;32442;51.514;-0.178;2022-12-29T01:20:14;99203.50;;;15.75;56.30
46710;BME280;32442;51.514;-0.178;2022-12-29T01:22:41;99197.94;;;15.75;56.32
46710;BME280;32442;51.514;-0.178;2022-12-29T01:25:10;99202.66;;;15.75;56.38
46710;BME280;32442;51.514;-0.178;2022-12-29T01:27:36;99204.13;;;15.72;56.56
46710;BME280;32442;51.514;-0.178;2022-12-29T01:30:03;99195.75;;;15.72;56.11
46710;BME280;32442;51.514;-0.178;2022-12-29T01:32:30;99200.00;;;15.70;56.03
46710;BME280;32442;51.514;-0.178;2022-12-29T01:34:57;99188.88;;;15.70;56.25
46710;BME280;32442;51.514;-0.178;2022-12-29T01:37:24;99197.88;;;15.67;56.08
46710;BME280;32442;51.514;-0.178;2022-12-29T01:39:51;99206.22;;;15.67;55.92
46710;BME280;32442;51.514;-0.178;2022-12-29T01:42:18;99210.97;;;15.66;56.15
46710;BME280;32442;51.514;-0.178;2022-12-29T01:47:13;99209.00;;;15.67;55.99
46710;BME280;32442;51.514;-0.178;2022-12-29T01:49:40;99209.00;;;15.67;55.65
46710;BME280;32442;51.514;-0.178;2022-12-29T01:52:07;99209.00;;;15.67;55.72
46710;BME280;32442;51.514;-0.178;2022-12-29T01:57:06;99216.53;;;15.66;55.67
46710;BME280;32442;51.514;-0.178;2022-12-29T01:59:35;99214.06;;;15.65;55.71
46710;BME280;32442;51.514;-0.178;2022-12-29T02:02:03;99218.81;;;15.64;55.98
46710;BME280;32442;51.514;-0.178;2022-12-29T02:04:31;99217.97;;;15.64;55.97
46710;BME280;32442;51.514;-0.178;2022-12-29T02:07:03;99217.97;;;15.64;55.73
46710;BME280;32442;51.514;-0.178;2022-12-29T02:09:32;99207.97;;;15.63;55.77
46710;BME280;32442;51.514;-0.178;2022-12-29T02:11:59;99215.84;;;15.61;55.67
46710;BME280;32442;51.514;-0.178;2022-12-29T02:14:27;99217.81;;;15.60;55.62
46710;BME280;32442;51.514;-0.178;2022-12-29T02:20:01;99214.19;;;15.60;55.35
46710;BME280;32442;51.514;-0.178;2022-12-29T02:25:23;99227.28;;;15.59;55.46
46710;BME280;32442;51.514;-0.178;2022-12-29T02:30:57;99232.03;;;15.58;55.55
46710;BME280;32442;51.514;-0.178;2022-12-29T02:36:42;99235.97;;;15.57;55.16
46710;BME280;32442;51.514;-0.178;2022-12-29T02:41:29;99235.44;;;15.55;55.15
46710;BME280;32442;51.514;-0.178;2022-12-29T02:44:06;99224.31;;;15.55;55.10
46710;BME280;32442;51.514;-0.178;2022-12-29T02:46:40;99227.09;;;15.55;55.11
46710;BME280;32442;51.514;-0.178;2022-12-29T02:54:16;99209.09;;;15.53;54.99
46710;BME280;32442;51.514;-0.178;2022-12-29T02:57:01;99218.25;;;15.53;54.92
46710;BME280;32442;51.514;-0.178;2022-12-29T02:59:28;99215.47;;;15.53;55.09
46710;BME280;32442;51.514;-0.178;2022-12-29T03:01:59;99211.06;;;15.52;55.17
46710;BME280;32442;51.514;-0.178;2022-12-29T03:14:51;99234.44;;;15.51;54.92
46710;BME280;32442;51.514;-0.178;2022-12-29T03:18:02;99235.56;;;15.50;54.91
46710;BME280;32442;51.514;-0.178;2022-12-29T03:20:56;99241.16;;;15.50;54.64
46710;BME280;32442;51.514;-0.178;2022-12-29T03:23:21;99236.69;;;15.49;54.89
46710;BME280;32442;51.514;-0.178;2022-12-29T03:25:51;99243.41;;;15.48;54.75
46710;BME280;32442;51.514;-0.178;2022-12-29T03:28:21;99232.28;;;15.48;54.73
46710;BME280;32442;51.514;-0.178;2022-12-29T03:30:49;99227.53;;;15.49;54.95
46710;BME280;32442;51.514;-0.178;2022-12-29T03:33:18;99238.97;;;15.47;54.67
46710;BME280;32442;51.514;-0.178;2022-12-29T03:35:47;99238.97;;;15.47;54.51
46710;BME280;32442;51.514;-0.178;2022-12-29T03:38:17;99227.84;;;15.47;54.67
46710;BME280;32442;51.514;-0.178;2022-12-29T03:40:47;99240.94;;;15.47;54.88
46710;BME280;32442;51.514;-0.178;2022-12-29T03:43:15;99228.16;;;15.46;54.84
46710;BME280;32442;51.514;-0.178;2022-12-29T03:45:43;99231.75;;;15.46;54.72
46710;BME280;32442;51.514;-0.178;2022-12-29T03:48:10;99235.66;;;15.45;54.86
46710;BME280;32442;51.514;-0.178;2022-12-29T03:50:36;99225.38;;;15.46;54.49
46710;BME280;32442;51.514;-0.178;2022-12-29T03:53:03;99220.94;;;15.45;54.33
46710;BME280;32442;51.514;-0.178;2022-12-29T03:55:30;99215.38;;;15.45;54.58
46710;BME280;32442;51.514;-0.178;2022-12-29T03:57:57;99219.31;;;15.44;54.52
46710;BME280;32442;51.514;-0.178;2022-12-29T04:00:23;99209.00;;;15.44;54.75
46710;BME280;32442;51.514;-0.178;2022-12-29T04:02:50;99206.22;;;15.44;54.62
46710;BME280;32442;51.514;-0.178;2022-12-29T04:05:17;99211.78;;;15.44;54.67
46710;BME280;32442;51.514;-0.178;2022-12-29T04:07:44;99211.78;;;15.44;54.62
46710;BME280;32442;51.514;-0.178;2022-12-29T04:10:11;99191.78;;;15.42;54.54
46710;BME280;32442;51.514;-0.178;2022-12-29T04:12:38;99196.53;;;15.42;54.77
46710;BME280;32442;51.514;-0.178;2022-12-29T04:15:05;99204.06;;;15.41;54.74
46710;BME280;32442;51.514;-0.178;2022-12-29T04:17:32;99215.19;;;15.41;54.70
46710;BME280;32442;51.514;-0.178;2022-12-29T04:19:59;99221.88;;;15.40;54.62
46710;BME280;32442;51.514;-0.178;2022-12-29T04:22:44;99219.91;;;15.41;54.76
46710;BME280;32442;51.514;-0.178;2022-12-29T04:25:11;99235.00;;;15.40;54.54
46710;BME280;32442;51.514;-0.178;2022-12-29T04:27:37;99220.25;;;15.39;54.41
46710;BME280;32442;51.514;-0.178;2022-12-29T04:30:04;99224.66;;;15.40;54.87
46710;BME280;32442;51.514;-0.178;2022-12-29T04:32:31;99241.34;;;15.40;54.67
46710;BME280;32442;51.514;-0.178;2022-12-29T04:34:58;99217.47;;;15.39;54.44
46710;BME280;32442;51.514;-0.178;2022-12-29T04:37:24;99227.78;;;15.39;54.95
46710;BME280;32442;51.514;-0.178;2022-12-29T04:39:51;99223.88;;;15.40;54.88
46710;BME280;32442;51.514;-0.178;2022-12-29T04:42:18;99223.88;;;15.40;54.53
46710;BME280;32442;51.514;-0.178;2022-12-29T04:44:44;99235.00;;;15.40;54.72
46710;BME280;32442;51.514;-0.178;2022-12-29T04:47:11;99238.91;;;15.39;55.05
46710;BME280;32442;51.514;-0.178;2022-12-29T04:49:38;99241.69;;;15.39;54.97
46710;BME280;32442;51.514;-0.178;2022-12-29T04:52:04;99245.31;;;15.39;54.92
46710;BME280;32442;51.514;-0.178;2022-12-29T04:54:31;99242.00;;;15.37;54.92
46710;BME280;32442;51.514;-0.178;2022-12-29T04:56:58;99243.13;;;15.36;54.84
46710;BME280;32442;51.514;-0.178;2022-12-29T04:59:24;99239.22;;;15.37;54.83
46710;BME280;32442;51.514;-0.178;2022-12-29T05:01:51;99260.66;;;15.37;55.01
46710;BME280;32442;51.514;-0.178;2022-12-29T05:04:18;99250.66;;;15.36;55.33
46710;BME280;32442;51.514;-0.178;2022-12-29T05:06:45;99255.41;;;15.35;55.13
46710;BME280;32442;51.514;-0.178;2022-12-29T05:09:11;99267.34;;;15.36;55.44
46710;BME280;32442;51.514;-0.178;2022-12-29T05:11:38;99270.97;;;15.36;55.08
46710;BME280;32442;51.514;-0.178;2022-12-29T05:14:04;99272.91;;;15.36;55.50
46710;BME280;32442;51.514;-0.178;2022-12-29T05:16:32;99289.59;;;15.36;55.34
46710;BME280;32442;51.514;-0.178;2022-12-29T05:18:59;99297.94;;;15.36;55.35
46710;BME280;32442;51.514;-0.178;2022-12-29T05:21:26;99316.63;;;15.35;55.13
46710;BME280;32442;51.514;-0.178;2022-12-29T05:23:53;99313.84;;;15.35;55.42
46710;BME280;32442;51.514;-0.178;2022-12-29T05:26:29;99318.59;;;15.35;55.51
46710;BME280;32442;51.514;-0.178;2022-12-29T05:28:55;99336.41;;;15.34;55.52
46710;BME280;32442;51.514;-0.178;2022-12-29T05:31:22;99330.03;;;15.33;55.57
46710;BME280;32442;51.514;-0.178;2022-12-29T05:33:54;99339.19;;;15.34;55.63
46710;BME280;32442;51.514;-0.178;2022-12-29T05:36:23;99353.94;;;15.34;55.52
46710;BME280;32442;51.514;-0.178;2022-12-29T05:38:50;99367.84;;;15.34;55.37
46710;BME280;32442;51.514;-0.178;2022-12-29T05:41:17;99378.16;;;15.34;55.62
46710;BME280;32442;51.514;-0.178;2022-12-29T05:43:43;99372.88;;;15.32;55.68
46710;BME280;32442;51.514;-0.178;2022-12-29T05:46:10;99394.00;;;15.33;55.45
46710;BME280;32442;51.514;-0.178;2022-12-29T05:48:37;99393.50;;;15.31;55.74
46710;BME280;32442;51.514;-0.178;2022-12-29T05:51:04;99406.28;;;15.32;55.87
46710;BME280;32442;51.514;-0.178;2022-12-29T05:53:31;99421.00;;;15.33;55.93
46710;BME280;32442;51.514;-0.178;2022-12-29T05:55:58;99428.53;;;15.32;55.70
46710;BME280;32442;51.514;-0.178;2022-12-29T05:58:25;99431.31;;;15.32;55.54
46710;BME280;32442;51.514;-0.178;2022-12-29T06:00:52;99436.06;;;15.32;55.69
46710;BME280;32442;51.514;-0.178;2022-12-29T06:03:19;99443.56;;;15.31;55.81
46710;BME280;32442;51.514;-0.178;2022-12-29T06:05:46;99449.97;;;15.32;55.64
46710;BME280;32442;51.514;-0.178;2022-12-29T06:08:13;99456.34;;;15.32;55.32
46710;BME280;32442;51.514;-0.178;2022-12-29T06:10:40;99469.44;;;15.32;55.69
46710;BME280;32442;51.514;-0.178;2022-12-29T06:13:06;99464.69;;;15.32;55.36
46710;BME280;32442;51.514;-0.178;2022-12-29T06:15:33;99466.66;;;15.32;55.48
46710;BME280;32442;51.514;-0.178;2022-12-29T06:18:00;99471.41;;;15.31;55.31
46710;BME280;32442;51.514;-0.178;2022-12-29T06:20:27;99470.59;;;15.31;55.48
46710;BME280;32442;51.514;-0.178;2022-12-29T06:22:53;99484.50;;;15.31;55.19
46710;BME280;32442;51.514;-0.178;2022-12-29T06:25:20;99492.84;;;15.31;55.12
46710;BME280;32442;51.514;-0.178;2022-12-29T06:27:47;99495.94;;;15.29;55.12
46710;BME280;32442;51.514;-0.178;2022-12-29T06:30:14;99497.91;;;15.29;55.17
46710;BME280;32442;51.514;-0.178;2022-12-29T06:32:42;99497.59;;;15.30;55.23
46710;BME280;32442;51.514;-0.178;2022-12-29T06:35:09;99499.22;;;15.31;55.23
46710;BME280;32442;51.514;-0.178;2022-12-29T06:37:36;99508.91;;;15.34;55.00
46710;BME280;32442;51.514;-0.178;2022-12-29T06:40:03;99516.16;;;15.35;54.93
46710;BME280;32442;51.514;-0.178;2022-12-29T06:42:29;99512.75;;;15.38;54.97
46710;BME280;32442;51.514;-0.178;2022-12-29T06:44:56;99531.00;;;15.44;55.08
46710;BME280;32442;51.514;-0.178;2022-12-29T06:47:25;99532.03;;;15.48;54.99
46710;BME280;32442;51.514;-0.178;2022-12-29T06:49:51;99539.13;;;15.54;55.01
46710;BME280;32442;51.514;-0.178;2022-12-29T06:52:18;99556.06;;;15.57;55.18
46710;BME280;32442;51.514;-0.178;2022-12-29T06:54:45;99561.84;;;15.61;55.39
46710;BME280;32442;51.514;-0.178;2022-12-29T06:57:11;99564.00;;;15.64;55.22
46710;BME280;32442;51.514;-0.178;2022-12-29T06:59:39;99569.75;;;15.68;55.10
46710;BME280;32442;51.514;-0.178;2022-12-29T07:02:05;99583.09;;;15.71;55.41
46710;BME280;32442;51.514;-0.178;2022-12-29T07:04:32;99587.72;;;15.75;55.31
46710;BME280;32442;51.514;-0.178;2022-12-29T07:06:59;99591.84;;;15.78;54.94
46710;BME280;32442;51.514;-0.178;2022-12-29T07:09:26;99585.63;;;15.81;54.80
46710;BME280;32442;51.514;-0.178;2022-12-29T07:11:52;99589.78;;;15.83;54.69
46710;BME280;32442;51.514;-0.178;2022-12-29T07:14:19;99589.97;;;15.87;54.48
46710;BME280;32442;51.514;-0.178;2022-12-29T07:16:46;99587.38;;;15.90;54.51
46710;BME280;32442;51.514;-0.178;2022-12-29T07:19:12;99593.19;;;15.94;54.66
46710;BME280;32442;51.514;-0.178;2022-12-29T07:21:39;99601.22;;;15.95;54.55
46710;BME280;32442;51.514;-0.178;2022-12-29T07:24:12;99602.56;;;15.98;54.11
46710;BME280;32442;51.514;-0.178;2022-12-29T07:26:39;99604.72;;;16.01;53.94
46710;BME280;32442;51.514;-0.178;2022-12-29T07:29:05;99609.66;;;16.04;54.08
46710;BME280;32442;51.514;-0.178;2022-12-29T07:31:32;99616.59;;;16.07;53.60
46710;BME280;32442;51.514;-0.178;2022-12-29T07:33:59;99625.13;;;16.10;53.25
46710;BME280;32442;51.514;-0.178;2022-12-29T07:36:26;99628.75;;;16.11;53.24
46710;BME280;32442;51.514;-0.178;2022-12-29T07:38:59;99642.06;;;16.14;53.07
46710;BME280;32442;51.514;-0.178;2022-12-29T07:41:26;99638.13;;;16.15;53.24
46710;BME280;32442;51.514;-0.178;2022-12-29T07:43:59;99645.38;;;16.16;52.89
46710;BME280;32442;51.514;-0.178;2022-12-29T07:46:26;99652.25;;;16.18;52.91
46710;BME280;32442;51.514;-0.178;2022-12-29T07:49:13;99661.16;;;16.20;52.90
46710;BME280;32442;51.514;-0.178;2022-12-29T07:51:40;99652.78;;;16.20;52.74
46710;BME280;32442;51.514;-0.178;2022-12-29T07:54:06;99668.38;;;16.21;52.75
46710;BME280;32442;51.514;-0.178;2022-12-29T07:56:33;99663.59;;;16.22;52.71
46710;BME280;32442;51.514;-0.178;2022-12-29T07:59:00;99670.84;;;16.23;52.49
46710;BME280;32442;51.514;-0.178;2022-12-29T08:01:27;99667.75;;;16.24;52.31
46710;BME280;32442;51.514;-0.178;2022-12-29T08:03:56;99674.97;;;16.25;52.56
46710;BME280;32442;51.514;-0.178;2022-12-29T08:06:23;99675.81;;;16.26;52.20
46710;BME280;32442;51.514;-0.178;2022-12-29T08:08:49;99683.84;;;16.27;52.11
46710;BME280;32442;51.514;-0.178;2022-12-29T08:11:16;99685.50;;;16.28;52.26
46710;BME280;32442;51.514;-0.178;2022-12-29T08:13:43;99696.34;;;16.30;52.34
46710;BME280;32442;51.514;-0.178;2022-12-29T08:16:09;99689.94;;;16.29;52.10
46710;BME280;32442;51.514;-0.178;2022-12-29T08:18:36;99699.13;;;16.30;52.03
46710;BME280;32442;51.514;-0.178;2022-12-29T08:21:03;99704.72;;;16.30;52.00
46710;BME280;32442;51.514;-0.178;2022-12-29T08:23:30;99701.91;;;16.30;52.10
46710;BME280;32442;51.514;-0.178;2022-12-29T08:26:00;99716.69;;;16.30;52.18
46710;BME280;32442;51.514;-0.178;2022-12-29T08:28:27;99708.63;;;16.29;51.87
46710;BME280;32442;51.514;-0.178;2022-12-29T08:30:57;99726.19;;;16.29;52.23
46710;BME280;32442;51.514;-0.178;2022-12-29T08:33:24;99730.09;;;16.28;52.38
46710;BME280;32442;51.514;-0.178;2022-12-29T08:35:51;99736.50;;;16.29;52.05
46710;BME280;32442;51.514;-0.178;2022-12-29T08:38:17;99742.06;;;16.29;52.28
46710;BME280;32442;51.514;-0.178;2022-12-29T08:40:44;99749.59;;;16.28;52.28
46710;BME280;32442;51.514;-0.178;2022-12-29T08:43:11;99752.38;;;16.28;52.40
46710;BME280;32442;51.514;-0.178;2022-12-29T08:45:42;99756.31;;;16.27;52.11
46710;BME280;32442;51.514;-0.178;2022-12-29T08:48:08;99755.47;;;16.27;52.37
46710;BME280;32442;51.514;-0.178;2022-12-29T08:50:35;99758.25;;;16.27;52.15
46710;BME280;32442;51.514;-0.178;2022-12-29T08:53:02;99763.00;;;16.26;52.46
46710;BME280;32442;51.514;-0.178;2022-12-29T08:55:29;99768.56;;;16.26;52.46
46710;BME280;32442;51.514;-0.178;2022-12-29T08:57:55;99766.94;;;16.25;52.48
46710;BME280;32442;51.514;-0.178;2022-12-29T09:00:22;99774.47;;;16.25;52.19
46710;BME280;32442;51.514;-0.178;2022-12-29T09:02:49;99786.47;;;16.25;52.24
46710;BME280;32442;51.514;-0.178;2022-12-29T09:05:16;99787.59;;;16.24;52.35
46710;BME280;32442;51.514;-0.178;2022-12-29T09:07:43;99790.38;;;16.24;52.26
46710;BME280;32442;51.514;-0.178;2022-12-29T09:10:10;99787.03;;;16.22;52.27
46710;BME280;32442;51.514;-0.178;2022-12-29T09:12:37;99786.22;;;16.22;52.51
46710;BME280;32442;51.514;-0.178;2022-12-29T09:15:03;99789.34;;;16.20;52.30
46710;BME280;32442;51.514;-0.178;2022-12-29T09:17:30;99797.69;;;16.20;52.38
46710;BME280;32442;51.514;-0.178;2022-12-29T09:20:13;99789.63;;;16.19;52.30
46710;BME280;32442;51.514;-0.178;2022-12-29T09:22:40;99788.81;;;16.18;52.59
46710;BME280;32442;51.514;-0.178;2022-12-29T09:25:07;99792.72;;;16.17;52.44
46710;BME280;32442;51.514;-0.178;2022-12-29T09:27:35;99802.72;;;16.18;52.42
46710;BME280;32442;51.514;-0.178;2022-12-29T09:30:06;99798.28;;;16.17;52.28
46710;BME280;32442;51.514;-0.178;2022-12-29T09:32:34;99801.41;;;16.16;52.47
46710;BME280;32442;51.514;-0.178;2022-12-29T09:35:08;99811.72;;;16.15;52.18
46710;BME280;32442;51.514;-0.178;2022-12-29T09:37:35;99812.84;;;16.14;52.28
46710;BME280;32442;51.514;-0.178;2022-12-29T09:40:02;99810.34;;;16.13;52.58
46710;BME280;32442;51.514;-0.178;2022-12-29T09:43:13;99807.56;;;16.13;52.16
46710;BME280;32442;51.514;-0.178;2022-12-29T09:45:42;99819.88;;;16.12;52.36
46710;BME280;32442;51.514;-0.178;2022-12-29T09:48:07;99828.22;;;16.12;52.47
46710;BME280;32442;51.514;-0.178;2022-12-29T09:50:38;99825.75;;;16.10;52.18
46710;BME280;32442;51.514;-0.178;2022-12-29T09:53:49;99838.00;;;16.09;52.63
46710;BME280;32442;51.514;-0.178;2022-12-29T09:55:56;99839.47;;;16.07;52.41
46710;BME280;32442;51.514;-0.178;2022-12-29T09:58:29;99839.97;;;16.09;52.38
46710;BME280;32442;51.514;-0.178;2022-12-29T10:14:04;99879.88;;;16.04;52.31
46710;BME280;32442;51.514;-0.178;2022-12-29T10:17:01;99887.75;;;16.02;52.31
46710;BME280;32442;51.514;-0.178;2022-12-29T10:25:06;99896.09;;;16.02;52.24
46710;BME280;32442;51.514;-0.178;2022-12-29T10:27:37;99901.66;;;16.02;52.12
46710;BME280;32442;51.514;-0.178;2022-12-29T10:30:04;99906.91;;;16.03;52.21
46710;BME280;32442;51.514;-0.178;2022-12-29T10:35:23;99936.66;;;16.08;52.41
46710;BME280;32442;51.514;-0.178;2022-12-29T10:40:38;99925.97;;;16.15;52.37
46710;BME280;32442;51.514;-0.178;2022-12-29T10:43:13;99903.59;;;16.20;52.03
46710;BME280;32442;51.514;-0.178;2022-12-29T10:45:46;99919.97;;;16.22;52.16
46710;BME280;32442;51.514;-0.178;2022-12-29T10:48:24;99927.44;;;16.26;52.31
46710;BME280;32442;51.514;-0.178;2022-12-29T10:50:58;99931.28;;;16.30;52.61
46710;BME280;32442;51.514;-0.178;2022-12-29T10:53:30;99931.50;;;16.34;52.56
46710;BME280;32442;51.514;-0.178;2022-12-29T10:55:59;99931.72;;;16.37;52.33
46710;BME280;32442;51.514;-0.178;2022-12-29T10:58:27;99940.28;;;16.41;52.43
46710;BME280;32442;51.514;-0.178;2022-12-29T11:00:55;99940.81;;;16.43;52.63
46710;BME280;32442;51.514;-0.178;2022-12-29T11:03:31;99941.03;;;16.46;52.31
46710;BME280;32442;51.514;-0.178;2022-12-29T11:08:39;99950.97;;;16.53;52.21
46710;BME280;32442;51.514;-0.178;2022-12-29T11:11:08;99956.75;;;16.56;52.25
46710;BME280;32442;51.514;-0.178;2022-12-29T11:13:49;99948.91;;;16.58;52.22
46710;BME280;32442;51.514;-0.178;2022-12-29T11:16:32;99959.47;;;16.61;52.04
46710;BME280;32442;51.514;-0.178;2022-12-29T11:19:01;99963.59;;;16.64;51.56
46710;BME280;32442;51.514;-0.178;2022-12-29T11:21:37;99964.97;;;16.66;51.82
46710;BME280;32442;51.514;-0.178;2022-12-29T11:24:26;99968.25;;;16.68;51.64
46710;BME280;32442;51.514;-0.178;2022-12-29T11:26:53;99966.00;;;16.70;51.42
46710;BME280;32442;51.514;-0.178;2022-12-29T11:29:25;99957.84;;;16.74;51.10
46710;BME280;32442;51.514;-0.178;2022-12-29T11:31:53;99971.50;;;16.75;51.08
46710;BME280;32442;51.514;-0.178;2022-12-29T11:36:47;99969.75;;;16.79;50.88
46710;BME280;32442;51.514;-0.178;2022-12-29T11:39:23;99970.25;;;16.81;50.73
46710;BME280;32442;51.514;-0.178;2022-12-29T11:41:52;99981.94;;;16.83;50.46
46710;BME280;32442;51.514;-0.178;2022-12-29T11:44:19;99982.78;;;16.84;50.07
46710;BME280;32442;51.514;-0.178;2022-12-29T11:46:47;99975.25;;;16.84;49.94
46710;BME280;32442;51.514;-0.178;2022-12-29T11:49:19;99985.22;;;16.85;49.86
46710;BME280;32442;51.514;-0.178;2022-12-29T11:51:46;99988.84;;;16.86;50.13
46710;BME280;32442;51.514;-0.178;2022-12-29T11:54:33;99978.84;;;16.85;49.74
46710;BME280;32442;51.514;-0.178;2022-12-29T11:57:11;99993.31;;;16.87;49.77
46710;BME280;32442;51.514;-0.178;2022-12-29T11:59:49;99996.09;;;16.87;49.41
46710;BME280;32442;51.514;-0.178;2022-12-29T12:04:54;99994.97;;;16.88;49.06
46710;BME280;32442;51.514;-0.178;2022-12-29T12:10:25;100003.03;;;16.89;49.09
46710;BME280;32442;51.514;-0.178;2022-12-29T12:12:56;100007.47;;;16.90;48.90
46710;BME280;32442;51.514;-0.178;2022-12-29T12:15:30;100006.97;;;16.88;48.95
46710;BME280;32442;51.514;-0.178;2022-12-29T12:18:18;100013.03;;;16.90;49.18
46710;BME280;32442;51.514;-0.178;2022-12-29T12:20:54;100008.63;;;16.89;48.72
46710;BME280;32442;51.514;-0.178;2022-12-29T12:25:55;100029.28;;;16.88;48.79
46710;BME280;32442;51.514;-0.178;2022-12-29T12:31:01;100017.28;;;16.88;48.90
46710;BME280;32442;51.514;-0.178;2022-12-29T12:33:35;100012.84;;;16.87;48.47
46710;BME280;32442;51.514;-0.178;2022-12-29T12:41:25;100006.44;;;16.86;48.93
46710;BME280;32442;51.514;-0.178;2022-12-29T12:44:24;100011.19;;;16.86;48.88
46710;BME280;32442;51.514;-0.178;2022-12-29T12:47:35;100009.22;;;16.86;48.74
46710;BME280;32442;51.514;-0.178;2022-12-29T12:49:39;100019.53;;;16.86;48.94
46710;BME280;32442;51.514;-0.178;2022-12-29T13:05:03;99997.84;;;16.83;48.78
46710;BME280;32442;51.514;-0.178;2022-12-29T13:12:48;100019.13;;;16.79;48.91
46710;BME280;32442;51.514;-0.178;2022-12-29T13:17:55;100014.97;;;16.76;48.76
46710;BME280;32442;51.514;-0.178;2022-12-29T13:41:36;100028.78;;;16.68;48.78
46710;BME280;32442;51.514;-0.178;2022-12-29T13:44:04;100016.31;;;16.65;48.46
46710;BME280;32442;51.514;-0.178;2022-12-29T13:46:33;100021.03;;;16.65;48.36
46710;BME280;32442;51.514;-0.178;2022-12-29T13:49:02;100015.75;;;16.63;48.49
46710;BME280;32442;51.514;-0.178;2022-12-29T13:51:31;100027.53;;;16.60;48.67
46710;BME280;32442;51.514;-0.178;2022-12-29T13:59:03;100035.38;;;16.58;48.10
46710;BME280;32442;51.514;-0.178;2022-12-29T14:01:34;100038.44;;;16.57;48.32
46710;BME280;32442;51.514;-0.178;2022-12-29T14:04:03;100017.25;;;16.56;48.20
46710;BME280;32442;51.514;-0.178;2022-12-29T14:06:35;100024.78;;;16.55;48.15
46710;BME280;32442;51.514;-0.178;2022-12-29T14:12:00;100027.06;;;16.53;47.97
46710;BME280;32442;51.514;-0.178;2022-12-29T14:14:29;100031.81;;;16.53;48.04
46710;BME280;32442;51.514;-0.178;2022-12-29T14:17:09;100028.50;;;16.51;47.95
46710;BME280;32442;51.514;-0.178;2022-12-29T14:19:41;100035.19;;;16.50;47.98
46710;BME280;32442;51.514;-0.178;2022-12-29T14:22:10;100041.94;;;16.49;48.37
46710;BME280;32442;51.514;-0.178;2022-12-29T14:24:42;100043.34;;;16.46;47.92
46710;BME280;32442;51.514;-0.178;2022-12-29T14:34:48;100051.78;;;16.41;47.99
46710;BME280;32442;51.514;-0.178;2022-12-29T14:40:02;100062.72;;;16.37;47.76
46710;BME280;32442;51.514;-0.178;2022-12-29T14:42:30;100079.44;;;16.37;47.68
46710;BME280;32442;51.514;-0.178;2022-12-29T14:45:02;100084.47;;;16.35;47.73
46710;BME280;32442;51.514;-0.178;2022-12-29T14:47:39;100076.44;;;16.34;47.78
46710;BME280;32442;51.514;-0.178;2022-12-29T14:50:10;100081.47;;;16.32;47.57
46710;BME280;32442;51.514;-0.178;2022-12-29T14:57:51;100080.41;;;16.28;47.84
46710;BME280;32442;51.514;-0.178;2022-12-29T15:00:24;100092.69;;;16.27;47.64
46710;BME280;32442;51.514;-0.178;2022-12-29T15:03:04;100099.09;;;16.27;47.75
46710;BME280;32442;51.514;-0.178;2022-12-29T15:07:58;100104.44;;;16.24;47.55
46710;BME280;32442;51.514;-0.178;2022-12-29T15:10:26;100106.41;;;16.23;47.56
46710;BME280;32442;51.514;-0.178;2022-12-29T15:13:02;100110.31;;;16.22;47.57
46710;BME280;32442;51.514;-0.178;2022-12-29T15:15:29;100098.34;;;16.22;47.57
46710;BME280;32442;51.514;-0.178;2022-12-29T15:17:56;100121.78;;;16.21;47.77
46710;BME280;32442;51.514;-0.178;2022-12-29T15:22:54;100124.84;;;16.19;47.48
46710;BME280;32442;51.514;-0.178;2022-12-29T15:25:21;100124.31;;;16.17;47.73
46710;BME280;32442;51.514;-0.178;2022-12-29T15:28:06;100127.09;;;16.17;47.92
46710;BME280;32442;51.514;-0.178;2022-12-29T15:30:33;100142.19;;;16.16;47.60
46710;BME280;32442;51.514;-0.178;2022-12-29T15:33:00;100141.66;;;16.14;47.74